createdAt,value
2023-01-04T00:01:44.608Z,-0.59
2023-01-04T00:04:12.130Z,-0.71
2023-01-04T00:06:39.612Z,-0.75
2023-01-04T00:09:06.792Z,-0.65
2023-01-04T00:11:36.139Z,-0.50
2023-01-04T00:14:03.605Z,-0.44
2023-01-04T00:16:31.141Z,-0.39
2023-01-04T00:18:58.768Z,-0.54
2023-01-04T00:21:28.764Z,-0.48
2023-01-04T00:23:58.953Z,-0.64
2023-01-04T00:26:36.434Z,-0.84
2023-01-04T00:29:06.971Z,-0.94
2023-01-04T00:31:40.604Z,-0.98
2023-01-04T00:34:16.451Z,-1.11
2023-01-04T00:36:44.625Z,-1.14
2023-01-04T00:39:15.615Z,-1.32
2023-01-04T00:42:00.360Z,-1.21
2023-01-04T00:44:28.828Z,-1.10
2023-01-04T00:46:56.897Z,-1.07
2023-01-04T00:49:26.215Z,-1.01
2023-01-04T00:51:53.402Z,-1.09
2023-01-04T00:54:21.361Z,-1.14
2023-01-04T00:56:51.182Z,-1.09
2023-01-04T00:59:25.632Z,-1.10
2023-01-04T01:01:54.851Z,-1.12
2023-01-04T01:04:24.693Z,-1.07
2023-01-04T01:06:52.787Z,-1.05
2023-01-04T01:09:23.239Z,-1.08
2023-01-04T01:11:56.648Z,-1.13
2023-01-04T01:14:25.445Z,-0.93
2023-01-04T01:16:57.332Z,-0.87
2023-01-04T01:19:28.147Z,-0.95
2023-01-04T01:21:57.416Z,-0.85
2023-01-04T01:24:25.040Z,-0.83
2023-01-04T01:26:53.217Z,-0.90
2023-01-04T01:29:20.841Z,-0.87
2023-01-04T01:31:48.238Z,-0.81
2023-01-04T01:34:23.256Z,-0.90
2023-01-04T01:36:50.866Z,-0.98
2023-01-04T01:39:18.378Z,-0.95
2023-01-04T01:41:45.743Z,-0.91
2023-01-04T01:44:44.396Z,-1.28
2023-01-04T01:47:25.441Z,-1.24
2023-01-04T01:49:54.850Z,-1.41
2023-01-04T01:52:32.354Z,-1.47
2023-01-04T01:55:02.873Z,-1.25
2023-01-04T01:57:34.304Z,-1.11
2023-01-04T02:00:06.939Z,-1.15
2023-01-04T02:02:34.411Z,-1.22
2023-01-04T02:05:03.663Z,-1.38
2023-01-04T02:07:33.663Z,-1.45
2023-01-04T02:10:01.489Z,-1.40
2023-01-04T02:12:29.018Z,-1.25
2023-01-04T02:14:56.593Z,-1.33
2023-01-04T02:17:54.583Z,-1.42
2023-01-04T02:21:00.508Z,-1.37
2023-01-04T02:23:50.255Z,-1.23
2023-01-04T02:26:26.540Z,-1.14
2023-01-04T02:29:16.859Z,-1.11
2023-01-04T02:31:59.200Z,-1.05
2023-01-04T02:34:58.582Z,-0.92
2023-01-04T02:37:49.111Z,-0.70
2023-01-04T02:40:21.345Z,-0.68
2023-01-04T02:43:34.043Z,-0.73
2023-01-04T02:46:14.875Z,-1.03
2023-01-04T02:49:00.814Z,-0.98
2023-01-04T02:51:33.301Z,-0.96
2023-01-04T02:54:19.326Z,-1.25
2023-01-04T02:57:09.585Z,-1.02
2023-01-04T03:00:14.660Z,-1.06
2023-01-04T03:03:30.854Z,-1.09
2023-01-04T03:06:16.843Z,-1.22
2023-01-04T03:08:57.300Z,-1.39
2023-01-04T03:12:02.676Z,-1.36
2023-01-04T03:14:36.836Z,-1.28
2023-01-04T03:17:12.739Z,-1.28
2023-01-04T03:19:52.144Z,-1.40
2023-01-04T03:22:56.224Z,-1.45
2023-01-04T03:25:50.511Z,-1.47
2023-01-04T03:28:46.813Z,-1.69
2023-01-04T03:31:43.802Z,-1.82
2023-01-04T03:34:30.975Z,-1.57
2023-01-04T03:37:22.260Z,-1.39
2023-01-04T03:40:22.755Z,-1.35
2023-01-04T03:43:12.581Z,-1.29
2023-01-04T03:46:05.646Z,-1.29
2023-01-04T03:48:49.375Z,-1.53
2023-01-04T03:51:28.530Z,-1.65
2023-01-04T03:54:26.489Z,-1.30
2023-01-04T03:56:54.709Z,-1.21
2023-01-04T03:59:23.949Z,-1.37
2023-01-04T04:01:51.895Z,-1.38
2023-01-04T04:04:39.142Z,-1.32
2023-01-04T04:07:24.839Z,-1.35
2023-01-04T04:09:53.713Z,-1.27
2023-01-04T04:12:21.499Z,-1.25
2023-01-04T04:14:48.665Z,-1.16
2023-01-04T04:17:16.102Z,-1.46
2023-01-04T04:19:43.480Z,-1.58
2023-01-04T04:22:11.137Z,-1.60
2023-01-04T04:24:39.603Z,-1.53
2023-01-04T04:27:07.007Z,-1.45
2023-01-04T04:29:34.390Z,-1.27
2023-01-04T04:32:01.943Z,-1.07
2023-01-04T04:34:29.424Z,-0.97
2023-01-04T04:36:57.784Z,-0.94
2023-01-04T04:39:25.304Z,-0.92
2023-01-04T04:41:52.773Z,-1.03
2023-01-04T04:44:21.131Z,-1.18
2023-01-04T04:46:49.367Z,-1.43
2023-01-04T04:49:18.970Z,-1.57
2023-01-04T04:51:47.224Z,-1.64
2023-01-04T04:54:21.132Z,-1.62
2023-01-04T04:56:49.915Z,-1.53
2023-01-04T04:59:17.507Z,-1.58
2023-01-04T05:01:51.075Z,-1.62
2023-01-04T05:04:19.938Z,-1.59
2023-01-04T05:06:50.232Z,-1.43
2023-01-04T05:09:17.924Z,-1.36
2023-01-04T05:12:04.896Z,-1.39
2023-01-04T05:14:32.222Z,-1.54
2023-01-04T05:17:00.775Z,-1.59
2023-01-04T05:19:28.199Z,-1.55
2023-01-04T05:21:55.614Z,-1.72
2023-01-04T05:24:25.102Z,-1.76
2023-01-04T05:26:52.483Z,-1.79
2023-01-04T05:29:38.413Z,-1.60
2023-01-04T05:32:11.539Z,-1.42
2023-01-04T05:34:39.981Z,-1.23
2023-01-04T05:37:07.463Z,-1.26
2023-01-04T05:39:34.920Z,-1.40
2023-01-04T05:42:20.781Z,-1.31
2023-01-04T05:44:48.305Z,-1.54
2023-01-04T05:47:15.697Z,-1.56
2023-01-04T05:49:43.431Z,-1.42
2023-01-04T05:52:11.275Z,-1.57
2023-01-04T05:54:38.599Z,-1.56
2023-01-04T05:57:06.404Z,-1.42
2023-01-04T05:59:39.144Z,-1.46
2023-01-04T06:02:26.198Z,-1.32
2023-01-04T06:04:58.696Z,-1.34
2023-01-04T06:07:28.233Z,-1.52
2023-01-04T06:09:55.830Z,-1.52
2023-01-04T06:12:23.107Z,-1.59
2023-01-04T06:14:50.493Z,-1.58
2023-01-04T06:17:18.567Z,-1.48
2023-01-04T06:19:45.961Z,-1.49
2023-01-04T06:22:13.421Z,-1.41
2023-01-04T06:24:40.949Z,-1.50
2023-01-04T06:27:09.420Z,-1.50
2023-01-04T06:29:36.952Z,-1.79
2023-01-04T06:32:04.572Z,-1.89
2023-01-04T06:34:32.916Z,-2.02
2023-01-04T06:37:00.406Z,-2.10
2023-01-04T06:39:28.030Z,-2.18
2023-01-04T06:42:05.430Z,-2.17
2023-01-04T06:44:34.061Z,-2.13
2023-01-04T06:47:01.389Z,-1.91
2023-01-04T06:49:28.827Z,-1.95
2023-01-04T06:51:56.306Z,-2.01
2023-01-04T06:54:23.779Z,-1.66
2023-01-04T06:56:51.107Z,-1.62
2023-01-04T06:59:18.643Z,-1.70
2023-01-04T07:01:46.127Z,-1.74
2023-01-04T07:04:17.323Z,-1.76
2023-01-04T07:06:46.614Z,-1.59
2023-01-04T07:09:13.827Z,-1.53
2023-01-04T07:11:41.029Z,-1.55
2023-01-04T07:14:09.581Z,-1.39
2023-01-04T07:16:38.086Z,-1.31
2023-01-04T07:19:05.547Z,-1.22
2023-01-04T07:21:32.952Z,-1.11
2023-01-04T07:24:01.488Z,-0.95
2023-01-04T07:26:35.269Z,-0.95
2023-01-04T07:29:17.611Z,-1.10
2023-01-04T07:31:50.056Z,-1.08
2023-01-04T07:34:19.210Z,-1.15
2023-01-04T07:36:47.740Z,-0.91
2023-01-04T07:39:16.757Z,-1.01
2023-01-04T07:41:45.574Z,-0.71
2023-01-04T07:44:13.868Z,-0.65
2023-01-04T07:46:41.783Z,-0.55
2023-01-04T07:49:17.351Z,-0.51
2023-01-04T07:51:50.271Z,-0.38
2023-01-04T07:54:19.842Z,-0.29
2023-01-04T07:56:55.693Z,-0.15
2023-01-04T07:59:23.494Z,-0.02
2023-01-04T08:01:51.393Z,0.07
2023-01-04T08:04:28.261Z,0.20
2023-01-04T08:07:06.683Z,0.32
2023-01-04T08:09:34.004Z,0.34
2023-01-04T08:12:03.505Z,0.44
2023-01-04T08:14:30.940Z,0.46
2023-01-04T08:17:00.393Z,0.49
2023-01-04T08:19:27.917Z,0.56
2023-01-04T08:21:55.424Z,0.66
2023-01-04T08:24:22.854Z,0.83
2023-01-04T08:26:56.656Z,0.96
2023-01-04T08:29:31.009Z,1.05
2023-01-04T08:32:01.486Z,1.04
2023-01-04T08:34:30.149Z,1.18
2023-01-04T08:36:57.546Z,1.29
2023-01-04T08:39:25.035Z,1.39
2023-01-04T08:44:41.420Z,1.65
2023-01-04T08:47:08.872Z,1.85
2023-01-04T08:49:37.374Z,2.49
2023-01-04T08:52:04.950Z,3.16
2023-01-04T08:54:33.069Z,3.89
2023-01-04T08:57:02.282Z,4.72
2023-01-04T08:59:30.158Z,5.84
2023-01-04T09:02:04.923Z,6.38
2023-01-04T09:04:33.474Z,6.79
2023-01-04T09:07:00.815Z,7.03
2023-01-04T09:09:30.462Z,7.89
2023-01-04T09:11:57.861Z,8.81
2023-01-04T09:14:25.227Z,9.86
2023-01-04T09:16:52.699Z,10.29
2023-01-04T09:19:22.403Z,9.74
2023-01-04T09:21:50.447Z,10.46
2023-01-04T09:24:18.627Z,9.82
2023-01-04T09:26:47.734Z,8.24
2023-01-04T09:29:16.615Z,7.31
2023-01-04T09:31:44.183Z,6.97
2023-01-04T09:34:15.115Z,6.45
2023-01-04T09:36:44.883Z,6.78
2023-01-04T09:39:21.123Z,6.81
2023-01-04T09:42:04.306Z,6.58
2023-01-04T09:45:21.983Z,6.60
2023-01-04T09:47:41.805Z,6.76
2023-01-04T09:50:24.569Z,6.37
2023-01-04T09:53:17.054Z,6.27
2023-01-04T09:55:49.871Z,6.37
2023-01-04T09:58:29.111Z,5.93
2023-01-04T10:01:03.311Z,5.88
2023-01-04T10:03:39.174Z,5.71
2023-01-04T10:06:10.314Z,5.61
2023-01-04T10:08:37.753Z,5.71
2023-01-04T10:11:25.822Z,5.46
2023-01-04T10:14:05.463Z,5.28
2023-01-04T10:22:57.609Z,5.29
2023-01-04T10:25:34.154Z,5.44
2023-01-04T10:28:07.378Z,5.58
2023-01-04T10:31:00.367Z,5.87
2023-01-04T10:34:21.278Z,5.86
2023-01-04T10:36:51.693Z,5.78
2023-01-04T10:39:32.054Z,5.82
2023-01-04T10:42:22.181Z,5.65
2023-01-04T10:45:16.869Z,5.66
2023-01-04T10:48:02.838Z,5.81
2023-01-04T10:50:48.353Z,5.99
2023-01-04T10:53:26.472Z,6.01
2023-01-04T10:56:25.462Z,6.01
2023-01-04T10:59:17.651Z,5.96
2023-01-04T11:02:23.025Z,5.88
2023-01-04T11:04:56.885Z,5.81
2023-01-04T11:07:39.903Z,5.87
2023-01-04T11:10:18.555Z,5.90
2023-01-04T11:12:48.300Z,5.83
2023-01-04T11:15:16.907Z,5.91
2023-01-04T11:17:47.269Z,5.87
2023-01-04T11:20:14.491Z,5.93
2023-01-04T11:22:57.686Z,5.99
2023-01-04T11:25:40.743Z,6.05
2023-01-04T11:28:21.744Z,6.07
2023-01-04T11:31:03.917Z,6.06
2023-01-04T11:33:32.993Z,6.05
2023-01-04T11:36:02.940Z,6.04
2023-01-04T11:38:30.997Z,6.07
2023-01-04T11:41:07.095Z,6.10
2023-01-04T11:43:37.529Z,6.18
2023-01-04T11:46:23.021Z,6.26
2023-01-04T11:48:51.380Z,6.32
2023-01-04T11:51:27.802Z,6.34
2023-01-04T11:54:01.175Z,6.45
2023-01-04T11:56:31.248Z,6.58
2023-01-04T11:59:20.962Z,6.76
2023-01-04T12:02:10.569Z,7.04
2023-01-04T12:04:38.232Z,7.28
2023-01-04T12:07:25.460Z,7.34
2023-01-04T12:09:54.250Z,7.29
2023-01-04T12:12:21.999Z,7.13
2023-01-04T12:14:51.594Z,7.07
2023-01-04T12:18:12.365Z,7.13
2023-01-04T12:20:39.649Z,7.02
2023-01-04T12:23:07.547Z,7.05
2023-01-04T12:25:51.802Z,7.06
2023-01-04T12:28:40.547Z,7.00
2023-01-04T12:31:27.070Z,6.95
2023-01-04T12:33:59.426Z,6.91
2023-01-04T12:36:39.080Z,6.86
2023-01-04T12:39:16.937Z,6.86
2023-01-04T12:42:00.801Z,6.86
2023-01-04T12:44:52.232Z,6.82
2023-01-04T12:47:40.306Z,6.85
2023-01-04T12:50:12.477Z,6.82
2023-01-04T12:55:37.728Z,6.82
2023-01-04T12:58:57.957Z,6.81
2023-01-04T13:01:27.384Z,6.81
2023-01-04T13:04:04.329Z,6.83
2023-01-04T13:06:37.493Z,6.78
2023-01-04T13:09:24.118Z,6.78
2023-01-04T13:12:05.235Z,6.75
2023-01-04T13:14:47.397Z,6.70
2023-01-04T13:17:20.481Z,6.62
2023-01-04T13:19:49.107Z,6.56
2023-01-04T13:22:30.750Z,6.54
2023-01-04T13:25:02.027Z,6.49
2023-01-04T13:27:30.218Z,6.47
2023-01-04T13:29:59.709Z,6.47
2023-01-04T13:32:59.387Z,6.42
2023-01-04T13:35:24.381Z,6.31
2023-01-04T13:37:52.324Z,6.31
2023-01-04T13:40:31.897Z,6.36
2023-01-04T13:43:20.695Z,6.37
2023-01-04T13:46:20.058Z,6.34
2023-01-04T13:48:52.664Z,6.31
2023-01-04T13:51:37.133Z,6.28
2023-01-04T13:54:20.080Z,6.17
2023-01-04T13:56:55.024Z,6.08
2023-01-04T13:59:23.393Z,6.02
2023-01-04T14:01:51.580Z,5.90
2023-01-04T14:04:30.940Z,5.83
2023-01-04T14:07:04.515Z,5.72
2023-01-04T14:09:44.227Z,5.58
2023-01-04T14:12:26.865Z,5.46
2023-01-04T14:15:00.103Z,5.30
2023-01-04T14:17:43.043Z,5.20
2023-01-04T14:20:14.521Z,5.07
2023-01-04T14:22:47.983Z,4.96
2023-01-04T14:25:33.462Z,4.92
2023-01-04T14:28:30.548Z,4.88
2023-01-04T14:31:10.203Z,4.79
2023-01-04T14:33:43.648Z,4.69
2023-01-04T14:36:26.837Z,4.68
2023-01-04T14:39:09.570Z,4.64
2023-01-04T14:41:40.047Z,4.59
2023-01-04T14:44:21.124Z,4.56
2023-01-04T14:46:53.982Z,4.52
2023-01-04T14:49:28.752Z,4.51
2023-01-04T14:52:10.164Z,4.47
2023-01-04T14:54:39.952Z,4.51
2023-01-04T14:57:10.235Z,4.53
2023-01-04T14:59:37.866Z,4.52
2023-01-04T15:02:05.044Z,4.53
2023-01-04T15:04:32.733Z,4.56
2023-01-04T15:07:01.335Z,4.52
2023-01-04T15:09:36.458Z,4.55
2023-01-04T15:12:03.707Z,4.55
2023-01-04T15:14:31.282Z,4.60
2023-01-04T15:16:58.731Z,4.65
2023-01-04T15:19:38.350Z,4.71
2023-01-04T15:22:05.868Z,4.72
2023-01-04T15:24:35.390Z,4.73
2023-01-04T15:27:02.818Z,4.73
2023-01-04T15:29:31.307Z,4.69
2023-01-04T15:31:58.774Z,4.68
2023-01-04T15:34:32.364Z,4.72
2023-01-04T15:37:05.219Z,4.62
2023-01-04T15:39:33.317Z,4.61
2023-01-04T15:42:20.550Z,4.64
2023-01-04T15:44:47.797Z,4.67
2023-01-04T15:47:15.303Z,4.68
2023-01-04T15:49:43.798Z,4.79
2023-01-04T15:52:11.207Z,4.84
2023-01-04T15:54:38.749Z,4.92
2023-01-04T15:57:06.455Z,5.01
2023-01-04T15:59:33.673Z,5.04
2023-01-04T16:02:01.825Z,5.04
2023-01-04T16:04:29.788Z,5.05
2023-01-04T16:06:56.887Z,5.03
2023-01-04T16:09:24.930Z,5.04
2023-01-04T16:12:10.610Z,5.07
2023-01-04T16:14:37.755Z,5.08
2023-01-04T16:17:05.235Z,5.00
2023-01-04T16:19:34.559Z,5.11
2023-01-04T16:22:01.691Z,5.13
2023-01-04T16:25:08.576Z,5.18
2023-01-04T16:27:17.493Z,5.27
2023-01-04T16:29:46.034Z,5.28
2023-01-04T16:32:13.489Z,5.31
2023-01-04T16:34:41.192Z,5.31
2023-01-04T16:37:08.411Z,5.28
2023-01-04T16:42:23.489Z,5.36
2023-01-04T16:44:50.941Z,5.41
2023-01-04T16:47:18.358Z,5.41
2023-01-04T16:49:45.907Z,5.48
2023-01-04T16:52:14.336Z,5.41
2023-01-04T16:54:41.849Z,5.42
2023-01-04T16:57:09.247Z,5.39
2023-01-04T16:59:36.796Z,5.34
2023-01-04T17:02:03.959Z,5.28
2023-01-04T17:04:32.405Z,5.31
2023-01-04T17:06:59.722Z,5.25
2023-01-04T17:09:27.182Z,5.23
2023-01-04T17:15:00.854Z,5.16
2023-01-04T17:17:35.263Z,5.17
2023-01-04T17:20:05.069Z,5.13
2023-01-04T17:22:34.931Z,5.10
2023-01-04T17:25:03.389Z,5.13
2023-01-04T17:27:30.654Z,5.16
2023-01-04T17:29:58.631Z,5.25
2023-01-04T17:32:27.031Z,5.32
2023-01-04T17:34:54.914Z,5.34
2023-01-04T17:37:22.544Z,5.32
2023-01-04T17:39:50.449Z,5.30
2023-01-04T17:42:22.950Z,5.31
2023-01-04T17:44:56.512Z,5.31
2023-01-04T17:47:26.038Z,5.38
2023-01-04T17:49:56.008Z,5.40
2023-01-04T17:52:30.587Z,5.41
2023-01-04T17:54:58.746Z,5.43
2023-01-04T17:57:27.162Z,5.42
2023-01-04T17:59:55.393Z,5.43
2023-01-04T18:02:22.698Z,5.46
2023-01-04T18:04:50.574Z,5.51
2023-01-04T18:07:19.415Z,5.56
2023-01-04T18:09:48.272Z,5.57
2023-01-04T18:12:17.645Z,5.56
2023-01-04T18:14:47.814Z,5.53
2023-01-04T18:17:17.290Z,5.52
2023-01-04T18:19:46.683Z,5.57
2023-01-04T18:22:14.544Z,5.61
2023-01-04T18:24:49.469Z,5.66
2023-01-04T18:27:23.606Z,5.73
2023-01-04T18:29:54.249Z,5.77
2023-01-04T18:32:25.713Z,5.76
2023-01-04T18:34:53.872Z,5.66
2023-01-04T18:37:22.318Z,5.65
2023-01-04T18:39:51.162Z,5.67
2023-01-04T18:42:19.575Z,5.72
2023-01-04T18:44:49.349Z,5.76
2023-01-04T18:47:21.905Z,5.80
2023-01-04T18:49:50.777Z,5.88
2023-01-04T18:52:22.700Z,5.93
2023-01-04T18:54:55.571Z,5.99
2023-01-04T18:57:25.016Z,6.10
2023-01-04T18:59:54.283Z,6.18
2023-01-04T19:02:23.867Z,6.19
2023-01-04T19:04:53.940Z,6.20
2023-01-04T19:07:22.201Z,6.16
2023-01-04T19:09:52.238Z,6.13
2023-01-04T19:12:21.602Z,6.08
2023-01-04T19:14:54.138Z,6.08
2023-01-04T19:17:25.280Z,6.03
2023-01-04T19:19:53.401Z,6.04
2023-01-04T19:22:24.720Z,5.99
2023-01-04T19:24:53.846Z,6.05
2023-01-04T19:27:22.637Z,6.03
2023-01-04T19:29:54.380Z,6.05
2023-01-04T19:32:26.176Z,6.10
2023-01-04T19:34:57.387Z,6.02
2023-01-04T19:37:25.357Z,6.03
2023-01-04T19:39:59.354Z,6.03
2023-01-04T19:42:27.928Z,6.06
2023-01-04T19:44:55.819Z,6.08
2023-01-04T19:47:25.076Z,6.18
2023-01-04T19:49:56.022Z,6.22
2023-01-04T19:52:23.771Z,6.32
2023-01-04T19:54:51.819Z,6.41
2023-01-04T19:57:19.639Z,6.45
2023-01-04T19:59:47.927Z,6.48
2023-01-04T20:02:18.223Z,6.44
2023-01-04T20:04:47.844Z,6.45
2023-01-04T20:07:17.283Z,6.43
2023-01-04T20:09:45.726Z,6.36
2023-01-04T20:12:14.362Z,6.28
2023-01-04T20:14:43.463Z,6.31
2023-01-04T20:17:12.439Z,6.29
2023-01-04T20:19:40.138Z,6.28
2023-01-04T20:22:12.394Z,6.27
2023-01-04T20:24:40.589Z,6.29
2023-01-04T20:27:10.784Z,6.29
2023-01-04T20:29:39.386Z,6.32
2023-01-04T20:32:07.496Z,6.25
2023-01-04T20:34:36.337Z,6.45
2023-01-04T20:37:09.993Z,6.48
2023-01-04T20:39:38.547Z,6.59
2023-01-04T20:42:25.257Z,6.62
2023-01-04T20:44:55.332Z,6.59
2023-01-04T20:47:23.444Z,6.62
2023-01-04T20:49:51.308Z,6.70
2023-01-04T20:52:18.974Z,6.69
2023-01-04T20:54:51.172Z,6.89
2023-01-04T20:57:19.380Z,7.06
2023-01-04T20:59:47.153Z,7.43
2023-01-04T21:02:15.244Z,7.68
2023-01-04T21:04:46.511Z,7.96
2023-01-04T21:07:13.996Z,8.11
2023-01-04T21:09:41.821Z,8.26
2023-01-04T21:12:11.047Z,8.48
2023-01-04T21:14:38.879Z,8.55
2023-01-04T21:17:06.687Z,8.66
2023-01-04T21:19:49.891Z,8.75
2023-01-04T21:22:22.660Z,8.79
2023-01-04T21:24:50.807Z,8.85
2023-01-04T21:27:18.326Z,8.84
2023-01-04T21:29:46.187Z,8.80
2023-01-04T21:32:13.745Z,8.83
2023-01-04T21:34:41.376Z,8.90
2023-01-04T21:37:08.745Z,9.06
2023-01-04T21:39:36.715Z,9.29
2023-01-04T21:42:06.177Z,9.38
2023-01-04T21:44:33.940Z,9.51
2023-01-04T21:47:01.372Z,9.50
2023-01-04T21:49:29.141Z,9.53
2023-01-04T21:51:56.753Z,9.51
2023-01-04T21:54:24.521Z,9.47
2023-01-04T21:56:52.102Z,9.54
2023-01-04T21:59:19.470Z,9.53
2023-01-04T22:01:47.072Z,9.48
2023-01-04T22:04:14.502Z,9.61
2023-01-04T22:06:42.407Z,9.61
2023-01-04T22:09:10.764Z,9.60
2023-01-04T22:11:38.348Z,9.57
2023-01-04T22:14:11.910Z,9.54
2023-01-04T22:16:39.232Z,9.50
2023-01-04T22:19:14.186Z,9.54
2023-01-04T22:21:42.133Z,9.57
2023-01-04T22:24:13.743Z,9.60
2023-01-04T22:26:41.593Z,9.58
2023-01-04T22:29:27.377Z,9.56
2023-01-04T22:31:54.691Z,9.61
2023-01-04T22:34:22.214Z,9.64
2023-01-04T22:36:49.643Z,9.69
2023-01-04T22:39:17.030Z,9.60
2023-01-04T22:41:44.586Z,9.51
2023-01-04T22:44:12.031Z,9.53
2023-01-04T22:46:39.483Z,9.57
2023-01-04T22:49:07.850Z,9.61
2023-01-04T22:51:35.481Z,9.65
2023-01-04T22:54:05.964Z,9.57
2023-01-04T22:56:34.416Z,9.57
2023-01-04T22:59:01.816Z,9.52
2023-01-04T23:01:33.553Z,9.58
2023-01-04T23:04:07.353Z,9.58
2023-01-04T23:06:34.494Z,9.51
2023-01-04T23:09:08.117Z,9.50
2023-01-04T23:11:36.002Z,9.40
2023-01-04T23:14:05.831Z,9.44
2023-01-04T23:16:33.728Z,9.46
2023-01-04T23:19:02.436Z,9.40
2023-01-04T23:21:30.166Z,9.36
2023-01-04T23:23:59.146Z,9.38
2023-01-04T23:26:30.413Z,9.41
2023-01-04T23:28:58.554Z,9.45
2023-01-04T23:31:29.649Z,9.45
2023-01-04T23:33:59.506Z,9.42
2023-01-04T23:36:30.084Z,9.31
2023-01-04T23:39:00.080Z,9.43
2023-01-04T23:41:47.129Z,9.44
2023-01-04T23:44:18.101Z,9.45
2023-01-04T23:46:46.248Z,9.32
2023-01-04T23:49:14.023Z,9.28
2023-01-04T23:51:49.231Z,9.26
2023-01-04T23:54:18.261Z,9.28
2023-01-04T23:56:46.005Z,9.18
2023-01-04T23:59:13.553Z,9.22
